createdAt,value
2023-05-19T00:00:52.449Z,20
2023-05-19T00:03:30.192Z,19
2023-05-19T00:06:00.768Z,27
2023-05-19T00:08:31.805Z,21
2023-05-19T00:11:02.395Z,28
2023-05-19T00:13:32.665Z,25
2023-05-19T00:16:03.195Z,25
2023-05-19T00:18:33.871Z,20
2023-05-19T00:21:05.673Z,20
2023-05-19T00:23:36.269Z,24
2023-05-19T00:26:06.964Z,25
2023-05-19T00:28:43.732Z,20
2023-05-19T00:31:13.836Z,26
2023-05-19T00:33:44.386Z,23
2023-05-19T00:36:14.930Z,27
2023-05-19T00:38:48.630Z,26
2023-05-19T00:41:19.096Z,24
2023-05-19T00:43:49.658Z,26
2023-05-19T00:46:20.794Z,20
2023-05-19T00:48:51.107Z,24
2023-05-19T00:51:21.618Z,25
2023-05-19T00:53:52.545Z,23
2023-05-19T00:56:23.990Z,32
2023-05-19T00:58:54.328Z,21
2023-05-19T01:01:24.967Z,27
2023-05-19T01:03:56.188Z,24
2023-05-19T01:06:27.524Z,27
2023-05-19T01:08:58.010Z,26
2023-05-19T01:11:29.021Z,20
2023-05-19T01:13:59.666Z,24
2023-05-19T01:16:30.520Z,31
2023-05-19T01:19:01.519Z,32
2023-05-19T01:21:32.418Z,23
2023-05-19T01:24:07.330Z,16
2023-05-19T01:26:38.028Z,21
2023-05-19T01:29:08.532Z,24
2023-05-19T01:31:39.010Z,24
2023-05-19T01:34:10.471Z,28
2023-05-19T01:36:41.318Z,23
2023-05-19T01:39:12.077Z,20
2023-05-19T01:41:42.691Z,28
2023-05-19T01:44:13.779Z,27
2023-05-19T01:46:44.622Z,24
2023-05-19T01:49:15.063Z,27
2023-05-19T01:51:45.877Z,25
2023-05-19T01:54:16.788Z,28
2023-05-19T01:56:47.382Z,21
2023-05-19T01:59:18.294Z,29
2023-05-19T02:01:49.126Z,22
2023-05-19T02:04:19.815Z,24
2023-05-19T02:06:50.677Z,26
2023-05-19T02:09:21.693Z,25
2023-05-19T02:11:52.236Z,23
2023-05-19T02:14:25.488Z,28
2023-05-19T02:16:56.660Z,28
2023-05-19T02:19:27.020Z,24
2023-05-19T02:21:57.245Z,24
2023-05-19T02:24:29.883Z,24
2023-05-19T02:27:00.434Z,27
2023-05-19T02:29:31.006Z,29
2023-05-19T02:32:02.467Z,26
2023-05-19T02:34:33.754Z,26
2023-05-19T02:37:04.585Z,24
2023-05-19T02:39:36.038Z,25
2023-05-19T02:42:07.536Z,30
2023-05-19T02:44:38.647Z,29
2023-05-19T02:47:09.692Z,32
2023-05-19T02:49:41.138Z,30
2023-05-19T02:52:12.090Z,31
2023-05-19T02:54:42.455Z,31
2023-05-19T02:57:13.361Z,33
2023-05-19T02:59:44.298Z,42
2023-05-19T03:02:15.298Z,37
2023-05-19T03:04:46.385Z,36
2023-05-19T03:07:17.700Z,31
2023-05-19T03:09:48.036Z,32
2023-05-19T03:12:18.851Z,33
2023-05-19T03:14:50.108Z,30
2023-05-19T03:17:24.951Z,36
2023-05-19T03:19:55.217Z,38
2023-05-19T03:22:25.621Z,38
2023-05-19T03:24:56.226Z,34
2023-05-19T03:27:27.137Z,32
2023-05-19T03:29:57.763Z,32
2023-05-19T03:32:32.249Z,27
2023-05-19T03:35:02.962Z,40
2023-05-19T03:37:34.364Z,32
2023-05-19T03:40:04.778Z,36
2023-05-19T03:42:35.738Z,32
2023-05-19T03:45:06.712Z,31
2023-05-19T03:47:37.510Z,36
2023-05-19T03:50:08.379Z,34
2023-05-19T03:52:39.078Z,40
2023-05-19T03:55:09.828Z,32
2023-05-19T03:57:40.865Z,41
2023-05-19T04:00:11.330Z,37
2023-05-19T04:02:42.015Z,34
2023-05-19T04:05:12.769Z,32
2023-05-19T04:07:43.572Z,36
2023-05-19T04:10:15.009Z,32
2023-05-19T04:12:45.436Z,35
2023-05-19T04:15:16.194Z,38
2023-05-19T04:17:47.152Z,34
2023-05-19T04:20:18.075Z,36
2023-05-19T04:22:49.303Z,37
2023-05-19T04:25:20.023Z,30
2023-05-19T04:27:51.203Z,38
2023-05-19T04:30:22.418Z,44
2023-05-19T04:32:53.057Z,29
2023-05-19T04:35:23.926Z,35
2023-05-19T04:37:54.481Z,36
2023-05-19T04:40:25.179Z,30
2023-05-19T04:42:55.696Z,33
2023-05-19T04:45:25.998Z,25
2023-05-19T04:47:56.366Z,32
2023-05-19T04:50:27.248Z,35
2023-05-19T04:52:58.045Z,40
2023-05-19T04:55:29.753Z,32
2023-05-19T04:58:00.694Z,37
2023-05-19T05:00:32.051Z,42
2023-05-19T05:03:02.764Z,42
2023-05-19T05:05:33.259Z,32
2023-05-19T05:08:04.202Z,32
2023-05-19T05:10:34.913Z,30
2023-05-19T05:13:05.776Z,24
2023-05-19T05:15:37.474Z,31
2023-05-19T05:18:08.628Z,23
2023-05-19T05:20:39.601Z,28
2023-05-19T05:23:10.083Z,31
2023-05-19T05:25:41.616Z,22
2023-05-19T05:28:12.765Z,28
2023-05-19T05:30:43.440Z,21
2023-05-19T05:33:13.973Z,24
2023-05-19T05:35:44.403Z,23
2023-05-19T05:38:14.926Z,21
2023-05-19T05:40:45.503Z,20
2023-05-19T05:43:16.517Z,21
2023-05-19T05:45:47.459Z,24
2023-05-19T05:48:18.071Z,22
2023-05-19T05:50:49.197Z,28
2023-05-19T05:53:19.457Z,16
2023-05-19T05:55:50.356Z,19
2023-05-19T05:58:21.000Z,20
2023-05-19T06:00:52.159Z,23
2023-05-19T06:03:22.494Z,21
2023-05-19T06:05:53.065Z,27
2023-05-19T06:08:23.382Z,19
2023-05-19T06:10:53.920Z,19
2023-05-19T06:13:24.677Z,18
2023-05-19T06:15:55.491Z,21
2023-05-19T06:18:26.031Z,16
2023-05-19T06:20:56.739Z,21
2023-05-19T06:23:27.584Z,17
2023-05-19T06:25:58.184Z,16
2023-05-19T06:28:28.823Z,23
2023-05-19T06:31:00.005Z,14
2023-05-19T06:33:30.696Z,15
2023-05-19T06:36:01.802Z,19
2023-05-19T06:38:33.386Z,16
2023-05-19T06:41:04.119Z,15
2023-05-19T06:43:34.689Z,20
2023-05-19T06:46:05.723Z,16
2023-05-19T06:48:36.698Z,19
2023-05-19T06:51:07.560Z,27
2023-05-19T06:53:38.463Z,28
2023-05-19T06:56:09.204Z,20
2023-05-19T06:58:39.742Z,19
2023-05-19T07:01:10.066Z,19
2023-05-19T07:03:41.283Z,19
2023-05-19T07:06:11.553Z,15
2023-05-19T07:08:42.563Z,20
2023-05-19T07:11:14.223Z,17
2023-05-19T07:13:44.799Z,27
2023-05-19T07:16:14.805Z,32
2023-05-19T07:18:46.169Z,18
2023-05-19T07:21:16.237Z,20
2023-05-19T07:23:46.908Z,23
2023-05-19T07:26:17.428Z,23
2023-05-19T07:28:46.790Z,29
2023-05-19T07:31:17.040Z,27
2023-05-19T07:33:47.653Z,19
2023-05-19T07:36:17.824Z,32
2023-05-19T07:38:54.176Z,14
2023-05-19T07:41:25.052Z,27
2023-05-19T07:43:55.425Z,23
2023-05-19T07:46:25.686Z,24
2023-05-19T07:48:56.546Z,29
2023-05-19T07:51:27.392Z,36
2023-05-19T07:53:57.999Z,33
2023-05-19T07:56:28.523Z,29
2023-05-19T07:58:59.066Z,20
2023-05-19T08:01:29.376Z,20
2023-05-19T08:04:00.187Z,33
2023-05-19T08:06:30.924Z,20
2023-05-19T08:09:01.513Z,29
2023-05-19T08:11:32.104Z,28
2023-05-19T08:14:02.844Z,26
2023-05-19T08:16:34.245Z,26
2023-05-19T08:19:04.825Z,34
2023-05-19T08:21:35.422Z,39
2023-05-19T08:24:06.223Z,26
2023-05-19T08:26:37.896Z,27
2023-05-19T08:29:07.107Z,32
2023-05-19T08:31:38.043Z,35
2023-05-19T08:34:08.858Z,36
2023-05-19T08:36:39.369Z,44
2023-05-19T08:39:09.928Z,37
2023-05-19T08:41:40.627Z,27
2023-05-19T08:44:11.401Z,24
2023-05-19T08:46:42.299Z,24
2023-05-19T08:49:12.669Z,19
2023-05-19T08:51:43.570Z,27
2023-05-19T08:54:14.421Z,29
2023-05-19T08:56:45.310Z,21
2023-05-19T08:59:16.108Z,27
2023-05-19T09:01:47.996Z,28
2023-05-19T09:04:18.371Z,24
2023-05-19T09:06:49.585Z,24
2023-05-19T09:09:19.917Z,24
2023-05-19T09:11:50.762Z,29
2023-05-19T09:14:21.709Z,28
2023-05-19T09:16:52.362Z,32
2023-05-19T09:19:23.175Z,29
2023-05-19T09:21:54.222Z,29
2023-05-19T09:24:24.673Z,31
2023-05-19T09:26:57.897Z,30
2023-05-19T09:29:31.998Z,26
2023-05-19T09:32:02.733Z,22
2023-05-19T09:34:33.751Z,27
2023-05-19T09:37:04.617Z,32
2023-05-19T09:39:39.771Z,37
2023-05-19T09:42:13.542Z,27
2023-05-19T09:44:47.107Z,29
2023-05-19T09:47:18.002Z,28
2023-05-19T09:49:50.687Z,36
2023-05-19T09:52:23.800Z,40
2023-05-19T09:54:54.337Z,32
2023-05-19T09:57:28.937Z,25
2023-05-19T10:00:02.755Z,32
2023-05-19T10:02:33.533Z,24
2023-05-19T10:05:08.187Z,23
2023-05-19T10:07:39.056Z,29
2023-05-19T10:10:09.413Z,27
2023-05-19T10:12:40.605Z,38
2023-05-19T10:17:56.093Z,31
2023-05-19T10:20:27.545Z,33
2023-05-19T10:22:58.397Z,31
2023-05-19T10:25:30.575Z,43
2023-05-19T10:28:01.792Z,41
2023-05-19T10:30:34.884Z,26
2023-05-19T10:33:05.071Z,39
2023-05-19T10:35:35.471Z,32
2023-05-19T10:38:09.413Z,24
2023-05-19T10:40:45.025Z,30
2023-05-19T10:43:14.912Z,24
2023-05-19T10:45:45.350Z,29
2023-05-19T10:48:17.080Z,27
2023-05-19T10:50:54.717Z,20
2023-05-19T10:53:25.620Z,25
2023-05-19T10:55:56.141Z,25
2023-05-19T10:58:35.937Z,26
2023-05-19T11:01:10.308Z,31
2023-05-19T11:03:42.954Z,33
2023-05-19T11:06:13.430Z,34
2023-05-19T11:08:44.183Z,32
2023-05-19T11:11:14.897Z,30
2023-05-19T11:13:47.278Z,27
2023-05-19T11:19:00.374Z,29
2023-05-19T11:21:35.324Z,28
2023-05-19T11:24:07.279Z,36
2023-05-19T11:26:37.696Z,32
2023-05-19T11:29:08.418Z,29
2023-05-19T11:31:41.036Z,27
2023-05-19T11:34:11.903Z,30
2023-05-19T11:36:41.179Z,32
2023-05-19T11:39:10.353Z,28
2023-05-19T11:41:43.004Z,28
2023-05-19T11:44:18.651Z,39
2023-05-19T11:46:49.200Z,33
2023-05-19T11:49:22.076Z,33
2023-05-19T11:51:53.238Z,38
2023-05-19T11:54:24.840Z,35
2023-05-19T11:56:55.389Z,40
2023-05-19T11:59:26.070Z,33
2023-05-19T12:01:56.706Z,32
2023-05-19T12:04:27.361Z,34
2023-05-19T12:06:57.942Z,31
2023-05-19T12:09:34.764Z,37
2023-05-19T12:12:05.098Z,32
2023-05-19T12:14:36.821Z,35
2023-05-19T12:17:07.674Z,32
2023-05-19T12:19:38.586Z,35
2023-05-19T12:22:09.430Z,48
2023-05-19T12:24:43.921Z,34
2023-05-19T12:27:18.418Z,35
2023-05-19T12:29:48.969Z,36
2023-05-19T12:32:19.295Z,40
2023-05-19T12:34:49.876Z,33
2023-05-19T12:37:20.636Z,37
2023-05-19T12:39:52.996Z,34
2023-05-19T12:42:23.367Z,33
2023-05-19T12:44:54.259Z,38
2023-05-19T12:47:25.056Z,34
2023-05-19T12:49:55.835Z,45
2023-05-19T12:52:30.374Z,32
2023-05-19T12:55:01.092Z,41
2023-05-19T12:57:32.492Z,33
2023-05-19T13:00:04.307Z,33
2023-05-19T13:02:38.108Z,32
2023-05-19T13:05:10.509Z,32
2023-05-19T13:07:41.092Z,33
2023-05-19T13:10:13.033Z,35
2023-05-19T13:12:43.773Z,33
2023-05-19T13:15:13.648Z,38
2023-05-19T13:17:44.354Z,35
2023-05-19T13:20:17.048Z,48
2023-05-19T13:22:48.237Z,33
2023-05-19T13:25:18.502Z,32
2023-05-19T13:27:50.588Z,40
2023-05-19T13:30:21.357Z,31
2023-05-19T13:32:56.254Z,32
2023-05-19T13:35:30.936Z,32
2023-05-19T13:38:08.096Z,33
2023-05-19T13:40:42.517Z,28
2023-05-19T13:43:16.070Z,32
2023-05-19T13:45:46.376Z,44
2023-05-19T13:48:17.149Z,35
2023-05-19T13:50:48.030Z,37
2023-05-19T13:53:19.000Z,32
2023-05-19T13:55:49.604Z,35
2023-05-19T13:58:20.953Z,34
2023-05-19T14:00:52.198Z,35
2023-05-19T14:03:22.969Z,40
2023-05-19T14:05:54.191Z,38
2023-05-19T14:08:25.400Z,64
2023-05-19T14:11:05.429Z,60
2023-05-19T14:13:38.339Z,52
2023-05-19T14:16:09.715Z,38
2023-05-19T14:18:42.302Z,44
2023-05-19T14:21:12.976Z,48
2023-05-19T14:23:43.261Z,44
2023-05-19T14:26:15.298Z,40
2023-05-19T14:28:45.820Z,44
2023-05-19T14:31:17.145Z,44
2023-05-19T14:33:55.311Z,39
2023-05-19T14:36:26.795Z,40
2023-05-19T14:38:57.738Z,40
2023-05-19T14:41:28.865Z,46
2023-05-19T14:44:00.067Z,42
2023-05-19T14:46:30.904Z,47
2023-05-19T14:49:01.881Z,45
2023-05-19T14:51:33.953Z,43
2023-05-19T14:54:04.944Z,44
2023-05-19T14:56:35.640Z,44
2023-05-19T14:59:06.059Z,44
2023-05-19T15:01:36.600Z,40
2023-05-19T15:04:07.047Z,39
2023-05-19T15:06:39.354Z,39
2023-05-19T15:09:10.296Z,44
2023-05-19T15:11:40.914Z,38
2023-05-19T15:14:11.757Z,37
2023-05-19T15:16:45.845Z,40
2023-05-19T15:19:20.606Z,41
2023-05-19T15:21:51.945Z,36
2023-05-19T15:24:22.400Z,40
2023-05-19T15:26:52.871Z,37
2023-05-19T15:29:22.203Z,37
2023-05-19T15:31:53.624Z,43
2023-05-19T15:34:28.325Z,43
2023-05-19T15:37:02.993Z,36
2023-05-19T15:39:33.746Z,40
2023-05-19T15:42:04.257Z,42
2023-05-19T15:44:42.665Z,45
2023-05-19T15:47:13.634Z,44
2023-05-19T15:49:44.114Z,45
2023-05-19T15:52:14.793Z,39
2023-05-19T15:54:45.346Z,44
2023-05-19T15:57:20.316Z,36
2023-05-19T15:59:51.026Z,39
2023-05-19T16:02:21.699Z,37
2023-05-19T16:04:53.703Z,40
2023-05-19T16:07:34.509Z,38
2023-05-19T16:10:03.225Z,45
2023-05-19T16:12:42.037Z,39
2023-05-19T16:15:16.643Z,40
2023-05-19T16:17:55.755Z,41
2023-05-19T16:20:26.995Z,36
2023-05-19T16:23:02.341Z,35
2023-05-19T16:25:33.167Z,36
2023-05-19T16:28:07.904Z,36
2023-05-19T16:30:41.165Z,51
2023-05-19T16:33:11.804Z,41
2023-05-19T16:35:44.200Z,36
2023-05-19T16:38:14.888Z,35
2023-05-19T16:40:45.487Z,40
2023-05-19T16:43:16.004Z,39
2023-05-19T16:45:46.884Z,35
2023-05-19T16:48:17.267Z,39
2023-05-19T16:50:50.948Z,43
2023-05-19T16:53:21.470Z,37
2023-05-19T16:55:52.037Z,40
2023-05-19T16:58:22.547Z,36
2023-05-19T17:00:53.195Z,45
2023-05-19T17:03:25.091Z,41
2023-05-19T17:05:56.518Z,39
2023-05-19T17:08:26.886Z,44
2023-05-19T17:11:01.537Z,43
2023-05-19T17:13:33.162Z,46
2023-05-19T17:16:03.794Z,51
2023-05-19T17:18:40.659Z,45
2023-05-19T17:21:17.885Z,40
2023-05-19T17:23:49.601Z,43
2023-05-19T17:26:21.025Z,42
2023-05-19T17:28:56.691Z,38
2023-05-19T17:31:32.864Z,45
2023-05-19T17:34:03.519Z,37
2023-05-19T17:36:43.384Z,38
2023-05-19T17:39:14.644Z,39
2023-05-19T17:41:45.275Z,40
2023-05-19T17:44:18.730Z,44
2023-05-19T17:46:50.759Z,40
2023-05-19T17:49:26.634Z,42
2023-05-19T17:51:59.321Z,42
2023-05-19T17:54:33.916Z,36
2023-05-19T17:57:07.823Z,40
2023-05-19T17:59:38.340Z,43
2023-05-19T18:02:09.108Z,35
2023-05-19T18:04:46.927Z,43
2023-05-19T18:07:19.159Z,42
2023-05-19T18:09:51.082Z,40
2023-05-19T18:12:21.714Z,44
2023-05-19T18:14:55.063Z,45
2023-05-19T18:17:26.006Z,48
2023-05-19T18:19:59.500Z,49
2023-05-19T18:22:30.397Z,47
2023-05-19T18:25:00.760Z,43
2023-05-19T18:27:31.235Z,45
2023-05-19T18:30:02.077Z,48
2023-05-19T18:32:32.686Z,48
2023-05-19T18:35:03.237Z,48
2023-05-19T18:37:36.109Z,48
2023-05-19T18:40:07.938Z,48
2023-05-19T18:42:42.303Z,48
2023-05-19T18:45:17.255Z,52
2023-05-19T18:47:48.000Z,55
2023-05-19T18:50:18.332Z,60
2023-05-19T18:52:51.321Z,56
2023-05-19T18:55:28.439Z,55
2023-05-19T18:58:03.639Z,50
2023-05-19T19:00:36.231Z,49
2023-05-19T19:03:06.758Z,52
2023-05-19T19:05:41.382Z,60
2023-05-19T19:08:15.890Z,50
2023-05-19T19:10:46.099Z,54
2023-05-19T19:13:20.881Z,56
2023-05-19T19:15:52.279Z,55
2023-05-19T19:18:22.985Z,51
2023-05-19T19:20:53.805Z,52
2023-05-19T19:23:24.598Z,53
2023-05-19T19:25:55.881Z,52
2023-05-19T19:28:26.726Z,54
2023-05-19T19:31:02.775Z,56
2023-05-19T19:33:33.166Z,57
2023-05-19T19:36:03.592Z,53
2023-05-19T19:38:34.844Z,56
2023-05-19T19:41:05.373Z,61
2023-05-19T19:43:35.990Z,60
2023-05-19T19:46:08.293Z,59
2023-05-19T19:48:43.237Z,60
2023-05-19T19:51:15.005Z,64
2023-05-19T19:53:45.701Z,64
2023-05-19T19:56:22.419Z,60
2023-05-19T19:58:58.750Z,56
2023-05-19T20:01:28.167Z,56
2023-05-19T20:03:58.472Z,60
2023-05-19T20:06:32.580Z,64
2023-05-19T20:09:01.615Z,66
2023-05-19T20:11:38.741Z,60
2023-05-19T20:14:09.979Z,62
2023-05-19T20:16:43.811Z,63
2023-05-19T20:19:16.106Z,62
2023-05-19T20:21:56.826Z,60
2023-05-19T20:24:39.638Z,60
2023-05-19T20:27:09.380Z,64
2023-05-19T20:29:41.932Z,64
2023-05-19T20:32:12.650Z,64
2023-05-19T20:34:47.025Z,64
2023-05-19T20:37:17.264Z,68
2023-05-19T20:39:53.943Z,62
2023-05-19T20:42:24.632Z,67
2023-05-19T20:44:58.014Z,63
2023-05-19T20:47:30.344Z,58
2023-05-19T20:50:05.125Z,64
2023-05-19T20:52:36.300Z,64
2023-05-19T20:55:05.241Z,68
2023-05-19T20:57:36.107Z,74
2023-05-19T21:00:06.573Z,69
2023-05-19T21:02:40.646Z,63
2023-05-19T21:05:11.640Z,63
2023-05-19T21:07:44.454Z,62
2023-05-19T21:10:15.885Z,66
2023-05-19T21:12:46.260Z,60
2023-05-19T21:15:26.166Z,60
2023-05-19T21:17:58.888Z,65
2023-05-19T21:20:29.672Z,60
2023-05-19T21:23:00.484Z,61
2023-05-19T21:25:30.913Z,62
2023-05-19T21:28:04.222Z,60
2023-05-19T21:30:35.044Z,61
2023-05-19T21:33:05.972Z,64
2023-05-19T21:35:36.835Z,64
2023-05-19T21:38:15.929Z,62
2023-05-19T21:40:40.095Z,64
2023-05-19T21:43:10.865Z,63
2023-05-19T21:45:41.818Z,63
2023-05-19T21:48:12.693Z,63
2023-05-19T21:50:43.857Z,62
2023-05-19T21:53:16.301Z,63
2023-05-19T21:55:51.338Z,56
2023-05-19T21:58:21.831Z,68
2023-05-19T22:00:53.918Z,61
2023-05-19T22:03:28.726Z,66
2023-05-19T22:06:00.934Z,61
2023-05-19T22:08:36.652Z,58
2023-05-19T22:11:07.865Z,65
2023-05-19T22:13:38.629Z,66
2023-05-19T22:16:09.868Z,62
2023-05-19T22:18:41.124Z,61
2023-05-19T22:21:11.494Z,65
2023-05-19T22:23:45.658Z,65
2023-05-19T22:26:16.368Z,66
2023-05-19T22:28:46.918Z,64
2023-05-19T22:31:24.436Z,61
2023-05-19T22:33:55.939Z,65
2023-05-19T22:36:29.586Z,66
2023-05-19T22:39:00.204Z,68
2023-05-19T22:41:30.659Z,64
2023-05-19T22:44:01.445Z,64
2023-05-19T22:46:31.937Z,64
2023-05-19T22:49:02.883Z,70
2023-05-19T22:51:33.318Z,64
2023-05-19T22:54:04.853Z,64
2023-05-19T22:56:44.299Z,59
2023-05-19T22:59:13.801Z,64
2023-05-19T23:01:44.747Z,61
2023-05-19T23:04:15.506Z,58
2023-05-19T23:06:49.276Z,60
2023-05-19T23:09:20.255Z,58
2023-05-19T23:11:51.538Z,60
2023-05-19T23:14:21.581Z,59
2023-05-19T23:16:52.534Z,63
2023-05-19T23:19:23.506Z,61
2023-05-19T23:21:54.344Z,60
2023-05-19T23:24:24.965Z,63
2023-05-19T23:26:56.695Z,60
2023-05-19T23:29:27.061Z,64
2023-05-19T23:31:57.875Z,61
2023-05-19T23:34:28.691Z,68
2023-05-19T23:36:59.996Z,61
2023-05-19T23:39:31.750Z,60
2023-05-19T23:42:03.342Z,67
2023-05-19T23:44:34.651Z,61
2023-05-19T23:47:05.158Z,65
2023-05-19T23:49:38.696Z,64
2023-05-19T23:52:10.131Z,64
2023-05-19T23:54:40.760Z,67
2023-05-19T23:57:11.408Z,62
2023-05-19T23:59:42.481Z,62
